createdAt,value
2022-10-05T00:01:28.501Z,11.80
2022-10-05T00:04:15.516Z,10.40
2022-10-05T00:06:48.443Z,12.80
2022-10-05T00:09:21.471Z,12.73
2022-10-05T00:11:53.849Z,11.97
2022-10-05T00:14:30.654Z,11.90
2022-10-05T00:17:07.006Z,13.30
2022-10-05T00:19:40.647Z,13.00
2022-10-05T00:22:18.430Z,12.10
2022-10-05T00:24:49.785Z,12.30
2022-10-05T00:27:24.718Z,11.13
2022-10-05T00:30:00.456Z,9.87
2022-10-05T00:32:33.117Z,11.10
2022-10-05T00:35:03.155Z,10.97
2022-10-05T00:37:33.890Z,9.77
2022-10-05T00:40:04.553Z,11.00
2022-10-05T00:42:54.407Z,10.87
2022-10-05T00:45:32.914Z,12.13
2022-10-05T00:48:23.672Z,12.17
2022-10-05T00:51:28.510Z,9.90
2022-10-05T00:54:19.842Z,12.03
2022-10-05T00:57:25.938Z,11.63
2022-10-05T01:00:09.218Z,11.43
2022-10-05T01:02:54.701Z,12.63
2022-10-05T01:05:49.540Z,11.90
2022-10-05T01:08:35.670Z,11.80
2022-10-05T01:11:21.171Z,12.63
2022-10-05T01:14:04.101Z,11.00
2022-10-05T01:16:51.179Z,11.53
2022-10-05T01:20:01.147Z,10.90
2022-10-05T01:23:01.804Z,12.13
2022-10-05T01:25:43.982Z,12.17
2022-10-05T01:28:27.079Z,11.90
2022-10-05T01:31:12.199Z,11.50
2022-10-05T01:33:53.093Z,11.73
2022-10-05T01:36:37.292Z,11.33
2022-10-05T01:39:19.984Z,10.50
2022-10-05T01:42:05.095Z,10.23
2022-10-05T01:44:51.031Z,11.43
2022-10-05T01:47:34.483Z,9.60
2022-10-05T01:50:11.411Z,10.53
2022-10-05T01:52:50.431Z,8.90
2022-10-05T01:55:33.912Z,9.63
2022-10-05T01:58:20.442Z,9.47
2022-10-05T02:01:07.334Z,10.00
2022-10-05T02:03:46.926Z,11.13
2022-10-05T02:06:23.729Z,9.03
2022-10-05T02:09:01.465Z,9.40
2022-10-05T02:11:32.631Z,10.17
2022-10-05T02:14:09.560Z,9.53
2022-10-05T02:16:45.985Z,10.43
2022-10-05T02:19:24.389Z,10.03
2022-10-05T02:22:02.068Z,10.27
2022-10-05T02:24:41.558Z,9.67
2022-10-05T02:27:17.338Z,11.20
2022-10-05T02:29:52.218Z,11.03
2022-10-05T02:32:32.126Z,9.80
2022-10-05T02:35:05.058Z,9.60
2022-10-05T02:37:46.570Z,9.60
2022-10-05T02:40:28.050Z,9.97
2022-10-05T02:43:14.222Z,9.87
2022-10-05T02:45:55.431Z,11.23
2022-10-05T02:48:45.329Z,9.80
2022-10-05T02:51:25.736Z,8.93
2022-10-05T02:54:13.676Z,10.47
2022-10-05T02:56:52.202Z,10.53
2022-10-05T02:59:33.790Z,10.93
2022-10-05T03:02:17.678Z,9.20
2022-10-05T03:05:06.657Z,9.63
2022-10-05T03:07:46.322Z,8.77
2022-10-05T03:10:27.327Z,10.10
2022-10-05T03:13:08.284Z,9.77
2022-10-05T03:16:10.235Z,9.30
2022-10-05T03:19:00.735Z,9.23
2022-10-05T03:21:59.112Z,7.60
2022-10-05T03:24:55.186Z,9.27
2022-10-05T03:27:42.248Z,9.17
2022-10-05T03:30:21.791Z,10.67
2022-10-05T03:33:09.867Z,16.40
2022-10-05T03:35:55.886Z,15.50
2022-10-05T03:38:38.042Z,12.57
2022-10-05T03:41:19.451Z,14.40
2022-10-05T03:44:34.454Z,13.07
2022-10-05T03:47:28.235Z,11.70
2022-10-05T03:50:32.638Z,12.27
2022-10-05T03:53:08.984Z,10.87
2022-10-05T03:55:48.124Z,10.53
2022-10-05T03:58:26.874Z,12.30
2022-10-05T04:01:06.931Z,10.40
2022-10-05T04:03:44.594Z,11.07
2022-10-05T04:06:22.707Z,13.00
2022-10-05T04:08:59.461Z,11.23
2022-10-05T04:11:42.219Z,11.23
2022-10-05T04:14:18.666Z,10.80
2022-10-05T04:16:57.814Z,11.30
2022-10-05T04:19:39.681Z,11.90
2022-10-05T04:22:18.681Z,11.90
2022-10-05T04:24:56.124Z,9.50
2022-10-05T04:27:39.426Z,11.20
2022-10-05T04:30:16.794Z,12.63
2022-10-05T04:32:55.019Z,11.87
2022-10-05T04:35:47.842Z,10.43
2022-10-05T04:38:40.063Z,9.93
2022-10-05T04:41:33.635Z,10.27
2022-10-05T04:44:28.922Z,9.30
2022-10-05T04:47:29.585Z,10.90
2022-10-05T04:50:21.517Z,12.13
2022-10-05T04:53:16.860Z,12.10
2022-10-05T04:55:59.764Z,11.00
2022-10-05T04:58:44.954Z,8.53
2022-10-05T05:01:48.886Z,10.30
2022-10-05T05:05:01.494Z,11.00
2022-10-05T05:07:47.601Z,12.47
2022-10-05T05:11:16.292Z,10.30
2022-10-05T05:14:47.926Z,11.37
2022-10-05T05:17:49.501Z,10.80
2022-10-05T05:20:34.868Z,10.90
2022-10-05T05:23:13.192Z,11.60
2022-10-05T05:26:00.031Z,9.03
2022-10-05T05:28:42.720Z,12.30
2022-10-05T05:31:25.860Z,12.93
2022-10-05T05:34:13.673Z,12.00
2022-10-05T05:36:59.509Z,10.40
2022-10-05T05:39:34.326Z,12.53
2022-10-05T05:42:23.948Z,13.80
2022-10-05T05:45:02.980Z,13.13
2022-10-05T05:47:38.271Z,14.10
2022-10-05T05:50:44.639Z,14.20
2022-10-05T05:53:23.591Z,14.20
2022-10-05T05:56:04.045Z,16.70
2022-10-05T05:58:42.357Z,16.40
2022-10-05T06:01:33.117Z,14.17
2022-10-05T06:04:13.669Z,13.27
2022-10-05T06:06:54.178Z,13.07
2022-10-05T06:09:31.588Z,13.63
2022-10-05T06:12:17.991Z,12.20
2022-10-05T06:14:55.699Z,13.77
2022-10-05T06:17:36.185Z,11.93
2022-10-05T06:20:19.601Z,10.70
2022-10-05T06:22:54.805Z,12.20
2022-10-05T06:25:34.477Z,12.40
2022-10-05T06:28:13.595Z,13.30
2022-10-05T06:31:03.388Z,13.10
2022-10-05T06:33:50.712Z,12.53
2022-10-05T06:36:43.726Z,13.57
2022-10-05T06:40:00.776Z,11.30
2022-10-05T06:42:53.272Z,11.00
2022-10-05T06:45:59.231Z,10.40
2022-10-05T06:49:11.564Z,10.60
2022-10-05T06:52:28.208Z,8.83
2022-10-05T06:55:19.180Z,10.70
2022-10-05T06:58:16.372Z,8.33
2022-10-05T07:00:56.909Z,9.20
2022-10-05T07:03:41.724Z,7.90
2022-10-05T07:06:19.183Z,7.83
2022-10-05T07:09:14.328Z,7.20
2022-10-05T07:12:07.022Z,7.83
2022-10-05T07:15:28.290Z,6.57
2022-10-05T07:18:17.497Z,7.40
2022-10-05T07:21:01.346Z,6.27
2022-10-05T07:23:50.753Z,6.30
2022-10-05T07:26:29.468Z,6.53
2022-10-05T07:29:26.114Z,6.60
2022-10-05T07:32:11.281Z,6.00
2022-10-05T07:34:57.487Z,6.67
2022-10-05T07:37:53.288Z,6.63
2022-10-05T07:40:32.392Z,6.30
2022-10-05T07:43:21.875Z,6.00
2022-10-05T07:46:04.318Z,7.30
2022-10-05T07:48:50.479Z,7.50
2022-10-05T07:51:32.196Z,6.30
2022-10-05T07:54:17.928Z,6.63
2022-10-05T07:56:54.189Z,6.37
2022-10-05T07:59:37.158Z,6.40
2022-10-05T08:02:24.766Z,7.93
2022-10-05T08:05:05.319Z,6.50
2022-10-05T08:07:40.414Z,7.07
2022-10-05T08:10:34.076Z,8.50
2022-10-05T08:13:19.669Z,7.53
2022-10-05T08:15:56.205Z,7.70
2022-10-05T08:18:52.302Z,8.50
2022-10-05T08:21:30.341Z,8.43
2022-10-05T08:24:09.712Z,7.57
2022-10-05T08:26:52.714Z,8.13
2022-10-05T08:29:34.045Z,8.50
2022-10-05T08:32:12.176Z,7.80
2022-10-05T08:34:56.802Z,7.90
2022-10-05T08:37:32.309Z,8.17
2022-10-05T08:40:35.256Z,7.77
2022-10-05T08:43:40.543Z,9.20
2022-10-05T08:46:37.991Z,7.43
2022-10-05T08:49:58.218Z,8.57
2022-10-05T08:52:31.860Z,7.93
2022-10-05T08:55:40.623Z,8.03
2022-10-05T08:59:13.253Z,8.47
2022-10-05T09:02:16.903Z,8.40
2022-10-05T09:05:12.226Z,8.40
2022-10-05T09:08:24.897Z,8.47
2022-10-05T09:11:15.864Z,9.03
2022-10-05T09:14:09.584Z,7.60
2022-10-05T09:16:53.124Z,7.80
2022-10-05T09:20:20.044Z,8.03
2022-10-05T09:23:01.868Z,9.17
2022-10-05T09:25:45.278Z,7.70
2022-10-05T09:28:35.153Z,8.00
2022-10-05T09:31:43.848Z,7.10
2022-10-05T09:34:50.022Z,7.90
2022-10-05T09:37:47.075Z,8.23
2022-10-05T09:41:00.287Z,8.33
2022-10-05T09:44:14.305Z,7.73
2022-10-05T09:47:15.768Z,6.70
2022-10-05T09:50:30.621Z,7.73
2022-10-05T09:53:30.497Z,8.60
2022-10-05T10:03:59.473Z,7.87
2022-10-05T10:07:13.911Z,6.47
2022-10-05T10:10:03.507Z,6.60
2022-10-05T10:12:57.070Z,6.13
2022-10-05T10:16:06.450Z,6.00
2022-10-05T10:19:15.367Z,5.63
2022-10-05T10:22:21.555Z,5.70
2022-10-05T10:25:22.981Z,5.87
2022-10-05T10:28:22.529Z,4.93
2022-10-05T10:31:40.593Z,5.50
2022-10-05T10:35:14.737Z,5.03
2022-10-05T10:38:38.310Z,5.47
2022-10-05T10:41:36.717Z,4.73
2022-10-05T10:44:47.216Z,6.20
2022-10-05T10:47:53.599Z,6.40
2022-10-05T10:51:13.969Z,5.10
2022-10-05T10:54:30.805Z,5.20
2022-10-05T10:57:10.140Z,5.00
2022-10-05T11:00:08.918Z,4.50
2022-10-05T11:03:17.921Z,5.03
2022-10-05T11:06:29.618Z,4.90
2022-10-05T11:09:27.729Z,3.97
2022-10-05T11:12:51.540Z,5.00
2022-10-05T11:16:03.396Z,4.63
2022-10-05T11:18:54.981Z,3.70
2022-10-05T11:21:36.799Z,3.97
2022-10-05T11:24:55.061Z,3.90
2022-10-05T11:28:02.087Z,4.40
2022-10-05T11:31:15.241Z,4.53
2022-10-05T11:34:23.175Z,4.07
2022-10-05T11:37:27.046Z,4.53
2022-10-05T11:40:28.544Z,3.80
2022-10-05T11:43:29.115Z,3.63
2022-10-05T11:46:13.847Z,3.53
2022-10-05T11:49:07.032Z,3.70
2022-10-05T11:51:53.872Z,3.30
2022-10-05T11:55:16.184Z,3.50
2022-10-05T11:57:56.029Z,2.60
2022-10-05T12:00:31.975Z,3.17
2022-10-05T12:03:44.423Z,3.80
2022-10-05T12:06:29.224Z,3.23
2022-10-05T12:09:19.994Z,3.33
2022-10-05T12:12:09.225Z,3.13
2022-10-05T12:14:55.397Z,3.03
2022-10-05T12:17:37.063Z,3.20
2022-10-05T12:20:15.837Z,4.53
2022-10-05T12:22:55.382Z,3.13
2022-10-05T12:25:36.966Z,3.07
2022-10-05T12:28:16.219Z,3.20
2022-10-05T12:31:11.877Z,3.87
2022-10-05T12:33:48.994Z,3.00
2022-10-05T12:36:46.302Z,3.23
2022-10-05T12:39:33.522Z,3.50
2022-10-05T12:42:22.688Z,3.30
2022-10-05T12:45:17.708Z,3.27
2022-10-05T12:48:18.946Z,3.40
2022-10-05T12:50:52.831Z,2.90
2022-10-05T12:53:48.405Z,3.90
2022-10-05T12:56:39.622Z,2.83
2022-10-05T12:59:25.960Z,2.87
2022-10-05T13:02:09.065Z,3.30
2022-10-05T13:04:51.489Z,3.00
2022-10-05T13:08:00.145Z,2.63
2022-10-05T13:10:40.364Z,3.30
2022-10-05T13:13:35.731Z,2.87
2022-10-05T13:16:22.443Z,2.80
2022-10-05T13:19:16.093Z,2.93
2022-10-05T13:22:07.205Z,2.67
2022-10-05T13:24:52.463Z,2.80
2022-10-05T13:27:30.538Z,2.47
2022-10-05T13:30:08.468Z,2.30
2022-10-05T13:32:44.488Z,1.87
2022-10-05T13:35:40.485Z,1.40
2022-10-05T13:38:30.264Z,1.70
2022-10-05T13:41:19.454Z,1.37
2022-10-05T13:44:04.819Z,1.50
2022-10-05T13:46:44.889Z,1.57
2022-10-05T13:49:26.608Z,1.80
2022-10-05T13:52:14.404Z,1.40
2022-10-05T13:54:58.297Z,1.17
2022-10-05T13:57:45.293Z,1.70
2022-10-05T14:00:25.696Z,1.10
2022-10-05T14:02:59.447Z,1.50
2022-10-05T14:05:32.355Z,1.50
2022-10-05T14:08:21.637Z,1.60
2022-10-05T14:10:53.815Z,1.53
2022-10-05T14:13:29.313Z,1.50
2022-10-05T14:16:16.703Z,1.60
2022-10-05T14:18:57.881Z,1.53
2022-10-05T14:21:32.539Z,1.20
2022-10-05T14:24:50.224Z,1.50
2022-10-05T14:27:27.528Z,2.03
2022-10-05T14:30:05.362Z,1.87
2022-10-05T14:32:46.273Z,1.30
2022-10-05T14:35:22.241Z,1.47
2022-10-05T14:38:02.255Z,1.57
2022-10-05T14:40:38.068Z,1.40
2022-10-05T14:43:22.968Z,1.70
2022-10-05T14:45:58.880Z,1.50
2022-10-05T14:48:31.467Z,1.30
2022-10-05T14:51:04.216Z,1.53
2022-10-05T14:53:43.594Z,1.30
2022-10-05T14:56:48.232Z,2.10
2022-10-05T15:00:02.764Z,1.30
2022-10-05T15:03:18.130Z,1.57
2022-10-05T15:05:53.099Z,1.40
2022-10-05T15:08:45.411Z,1.50
2022-10-05T15:11:32.716Z,1.60
2022-10-05T15:14:04.871Z,1.67
2022-10-05T15:16:41.096Z,2.07
2022-10-05T15:19:22.631Z,1.60
2022-10-05T15:22:21.515Z,2.83
2022-10-05T15:25:12.360Z,1.77
2022-10-05T15:28:09.544Z,2.00
2022-10-05T15:30:49.938Z,1.83
2022-10-05T15:33:33.252Z,1.40
2022-10-05T15:36:21.090Z,4.03
2022-10-05T15:39:06.508Z,1.50
2022-10-05T15:41:58.887Z,1.60
2022-10-05T15:44:52.254Z,1.60
2022-10-05T15:47:28.333Z,1.77
2022-10-05T15:50:15.225Z,1.27
2022-10-05T15:52:54.132Z,1.30
2022-10-05T15:55:46.832Z,1.70
2022-10-05T15:58:47.837Z,1.80
2022-10-05T16:01:41.835Z,1.50
2022-10-05T16:04:23.626Z,1.87
2022-10-05T16:07:26.027Z,2.10
2022-10-05T16:10:12.370Z,1.70
2022-10-05T16:13:00.792Z,1.80
2022-10-05T16:15:40.665Z,1.70
2022-10-05T16:18:49.966Z,1.93
2022-10-05T16:21:32.778Z,1.73
2022-10-05T16:24:21.426Z,2.10
2022-10-05T16:27:02.421Z,1.80
2022-10-05T16:29:48.281Z,1.70
2022-10-05T16:32:25.070Z,1.77
2022-10-05T16:35:18.384Z,2.17
2022-10-05T16:38:07.588Z,1.90
2022-10-05T16:40:50.718Z,2.00
2022-10-05T16:43:40.126Z,1.60
2022-10-05T16:46:22.303Z,1.93
2022-10-05T16:49:06.182Z,2.57
2022-10-05T16:51:55.939Z,2.60
2022-10-05T16:54:32.416Z,2.27
2022-10-05T16:57:12.304Z,3.10
2022-10-05T17:00:14.855Z,2.60
2022-10-05T17:03:03.814Z,2.43
2022-10-05T17:06:06.073Z,2.97
2022-10-05T17:09:11.831Z,2.17
2022-10-05T17:12:04.229Z,2.33
2022-10-05T17:14:52.865Z,2.40
2022-10-05T17:18:00.401Z,2.63
2022-10-05T17:20:47.050Z,2.73
2022-10-05T17:23:34.293Z,2.50
2022-10-05T17:26:57.899Z,2.30
2022-10-05T17:29:49.931Z,2.30
2022-10-05T17:32:42.517Z,2.40
2022-10-05T17:35:22.357Z,2.80
2022-10-05T17:38:22.187Z,2.90
2022-10-05T17:41:26.250Z,2.90
2022-10-05T17:44:30.797Z,2.50
2022-10-05T17:47:04.078Z,4.00
2022-10-05T17:50:11.875Z,2.50
2022-10-05T17:52:57.714Z,3.57
2022-10-05T17:56:05.652Z,2.53
2022-10-05T17:59:07.961Z,2.43
2022-10-05T18:01:42.998Z,2.43
2022-10-05T18:04:42.513Z,2.50
2022-10-05T18:07:25.616Z,2.77
2022-10-05T18:10:28.713Z,2.53
2022-10-05T18:13:34.670Z,2.60
2022-10-05T18:16:04.890Z,3.30
2022-10-05T18:19:01.404Z,3.70
2022-10-05T18:21:43.190Z,2.10
2022-10-05T18:24:56.171Z,3.10
2022-10-05T18:28:06.203Z,4.70
2022-10-05T18:30:57.951Z,3.80
2022-10-05T18:33:59.684Z,3.60
2022-10-05T18:37:07.118Z,5.87
2022-10-05T18:39:59.258Z,3.30
2022-10-05T18:42:40.721Z,3.63
2022-10-05T18:45:27.157Z,6.67
2022-10-05T18:48:17.380Z,6.60
2022-10-05T18:50:56.579Z,5.43
2022-10-05T18:53:45.129Z,6.10
2022-10-05T18:56:28.693Z,4.77
2022-10-05T18:59:24.098Z,6.43
2022-10-05T19:02:13.743Z,4.10
2022-10-05T19:05:02.335Z,3.90
2022-10-05T19:07:46.789Z,5.40
2022-10-05T19:10:31.685Z,6.10
2022-10-05T19:13:25.159Z,4.63
2022-10-05T19:16:13.420Z,3.93
2022-10-05T19:19:05.008Z,4.13
2022-10-05T19:21:47.187Z,5.90
2022-10-05T19:24:48.163Z,7.60
2022-10-05T19:27:37.481Z,5.73
2022-10-05T19:30:23.229Z,6.03
2022-10-05T19:33:16.361Z,5.53
2022-10-05T19:36:07.432Z,4.33
2022-10-05T19:38:47.757Z,3.87
2022-10-05T19:41:26.273Z,3.60
2022-10-05T19:44:19.471Z,3.90
2022-10-05T19:47:03.128Z,3.47
2022-10-05T19:49:45.819Z,3.10
2022-10-05T19:52:24.545Z,3.43
2022-10-05T19:55:17.840Z,5.90
2022-10-05T19:57:52.541Z,4.10
2022-10-05T20:00:31.985Z,4.40
2022-10-05T20:03:14.954Z,4.50
2022-10-05T20:05:45.437Z,4.30
2022-10-05T20:08:20.402Z,4.30
2022-10-05T20:11:11.338Z,3.80
2022-10-05T20:13:42.736Z,4.47
2022-10-05T20:16:45.924Z,4.03
2022-10-05T20:19:51.706Z,4.37
2022-10-05T20:22:35.509Z,4.63
2022-10-05T20:25:09.148Z,4.40
2022-10-05T20:27:47.585Z,4.50
2022-10-05T20:30:21.588Z,4.33
2022-10-05T20:32:57.641Z,4.77
2022-10-05T20:35:30.826Z,5.37
2022-10-05T20:38:02.012Z,5.30
2022-10-05T20:40:33.225Z,4.40
2022-10-05T20:43:03.191Z,4.23
2022-10-05T20:45:33.183Z,4.73
2022-10-05T20:48:05.931Z,4.80
2022-10-05T20:50:37.346Z,4.53
2022-10-05T20:53:11.704Z,4.93
2022-10-05T20:55:43.201Z,5.23
2022-10-05T20:58:13.268Z,4.90
2022-10-05T21:00:55.831Z,4.53
2022-10-05T21:03:28.566Z,4.20
2022-10-05T21:05:59.267Z,4.30
2022-10-05T21:08:29.741Z,4.67
2022-10-05T21:11:00.116Z,4.40
2022-10-05T21:13:30.169Z,5.37
2022-10-05T21:16:00.216Z,6.00
2022-10-05T21:18:33.569Z,5.30
2022-10-05T21:21:03.687Z,6.13
2022-10-05T21:23:34.014Z,5.77
2022-10-05T21:26:04.733Z,5.07
2022-10-05T21:28:34.789Z,5.20
2022-10-05T21:31:04.840Z,4.17
2022-10-05T21:33:38.517Z,5.07
2022-10-05T21:36:08.647Z,5.00
2022-10-05T21:38:38.713Z,5.30
2022-10-05T21:41:09.245Z,5.60
2022-10-05T21:43:39.537Z,4.50
2022-10-05T21:46:10.451Z,4.90
2022-10-05T21:48:44.090Z,5.60
2022-10-05T21:51:19.389Z,5.13
2022-10-05T21:53:54.045Z,5.10
2022-10-05T21:56:30.669Z,5.87
2022-10-05T21:59:01.781Z,5.57
2022-10-05T22:01:31.899Z,6.20
2022-10-05T22:04:04.597Z,6.20
2022-10-05T22:06:35.278Z,5.87
2022-10-05T22:09:06.709Z,5.80
2022-10-05T22:11:37.319Z,5.40
2022-10-05T22:14:07.791Z,5.40
2022-10-05T22:16:41.339Z,5.50
2022-10-05T22:19:21.541Z,5.83
2022-10-05T22:21:51.565Z,5.23
2022-10-05T22:24:21.752Z,5.20
2022-10-05T22:26:53.343Z,6.47
2022-10-05T22:29:24.704Z,6.53
2022-10-05T22:31:57.528Z,5.30
2022-10-05T22:34:30.217Z,6.60
2022-10-05T22:37:01.672Z,5.33
2022-10-05T22:39:31.708Z,5.77
2022-10-05T22:42:01.829Z,6.10
2022-10-05T22:44:31.890Z,5.33
2022-10-05T22:47:02.200Z,6.07
2022-10-05T22:49:34.936Z,6.40
2022-10-05T22:52:04.929Z,6.27
2022-10-05T22:54:37.327Z,6.53
2022-10-05T22:57:07.547Z,6.03
2022-10-05T22:59:37.517Z,5.43
2022-10-05T23:02:07.600Z,5.83
2022-10-05T23:04:40.228Z,5.57
2022-10-05T23:07:10.285Z,5.60
2022-10-05T23:09:40.377Z,5.60
2022-10-05T23:12:10.356Z,6.10
2022-10-05T23:14:41.649Z,5.13
2022-10-05T23:17:11.710Z,5.00
2022-10-05T23:19:44.274Z,6.03
2022-10-05T23:22:14.251Z,5.30
2022-10-05T23:24:44.271Z,5.17
2022-10-05T23:27:14.315Z,5.97
2022-10-05T23:29:44.354Z,4.80
2022-10-05T23:32:14.342Z,4.90
2022-10-05T23:34:47.067Z,5.07
2022-10-05T23:37:19.195Z,6.10
2022-10-05T23:39:49.283Z,5.50
2022-10-05T23:42:19.612Z,5.27
2022-10-05T23:44:49.706Z,5.10
2022-10-05T23:47:19.760Z,5.70
2022-10-05T23:49:52.439Z,5.73
2022-10-05T23:52:22.481Z,5.23
2022-10-05T23:54:52.533Z,5.83
2022-10-05T23:57:23.137Z,5.80
2022-10-05T23:59:53.154Z,6.20
